Terminal Aerodrome Forecast
Issued by NWS

Home | Current Version | Previous Version | Text Only | Print | Product List | Glossary On
Versions: 1 2 3 4 5 6 7 8 9 10 11 12 13
993
FTUS46 KHNX 090520
TAFBFL
TAF
KBFL 090520Z 0906/1006 00000KT P6SM SKC
     FM091200 10005KT 4SM BR SKC
     FM091900 32006KT P6SM SKC=

USA.gov is the U.S. government's official web portal to all federal, state and local government web resources and services.